sensor_id;sensor_type;location;lat;lon;timestamp;P1;durP1;ratioP1;P2;durP2;ratioP2
9322;SDS011;4700;48.822;9.270;2023-07-28T00:00:04;372.60;;;169.10;;
9322;SDS011;4700;48.822;9.270;2023-07-28T00:02:52;377.97;;;171.40;;
9322;SDS011;4700;48.822;9.270;2023-07-28T00:05:37;372.90;;;181.23;;
9322;SDS011;4700;48.822;9.270;2023-07-28T00:08:23;376.53;;;196.77;;
9322;SDS011;4700;48.822;9.270;2023-07-28T00:11:13;368.57;;;175.93;;
9322;SDS011;4700;48.822;9.270;2023-07-28T00:16:34;381.00;;;185.23;;
9322;SDS011;4700;48.822;9.270;2023-07-28T00:19:22;376.40;;;173.90;;
9322;SDS011;4700;48.822;9.270;2023-07-28T00:21:59;375.10;;;163.30;;
9322;SDS011;4700;48.822;9.270;2023-07-28T00:24:45;369.57;;;175.20;;
9322;SDS011;4700;48.822;9.270;2023-07-28T00:27:40;374.87;;;165.83;;
9322;SDS011;4700;48.822;9.270;2023-07-28T00:30:25;370.97;;;188.50;;
9322;SDS011;4700;48.822;9.270;2023-07-28T00:33:10;381.20;;;168.57;;
9322;SDS011;4700;48.822;9.270;2023-07-28T00:35:57;366.27;;;159.77;;
9322;SDS011;4700;48.822;9.270;2023-07-28T00:38:43;371.37;;;163.80;;
9322;SDS011;4700;48.822;9.270;2023-07-28T00:41:29;370.43;;;161.60;;
9322;SDS011;4700;48.822;9.270;2023-07-28T00:44:15;366.63;;;160.80;;
9322;SDS011;4700;48.822;9.270;2023-07-28T00:47:01;369.17;;;162.57;;
9322;SDS011;4700;48.822;9.270;2023-07-28T00:49:48;370.07;;;168.03;;
9322;SDS011;4700;48.822;9.270;2023-07-28T00:55:10;389.43;;;176.10;;
9322;SDS011;4700;48.822;9.270;2023-07-28T01:00:32;385.80;;;189.17;;
9322;SDS011;4700;48.822;9.270;2023-07-28T01:03:19;368.90;;;168.97;;
9322;SDS011;4700;48.822;9.270;2023-07-28T01:06:10;370.80;;;177.60;;
9322;SDS011;4700;48.822;9.270;2023-07-28T01:08:59;369.90;;;177.57;;
9322;SDS011;4700;48.822;9.270;2023-07-28T01:11:55;369.67;;;172.07;;
9322;SDS011;4700;48.822;9.270;2023-07-28T01:14:42;380.60;;;178.93;;
9322;SDS011;4700;48.822;9.270;2023-07-28T01:17:29;369.30;;;173.17;;
9322;SDS011;4700;48.822;9.270;2023-07-28T01:20:15;373.60;;;171.53;;
9322;SDS011;4700;48.822;9.270;2023-07-28T01:23:08;369.17;;;164.97;;
9322;SDS011;4700;48.822;9.270;2023-07-28T01:26:01;367.80;;;168.30;;
9322;SDS011;4700;48.822;9.270;2023-07-28T01:28:51;371.90;;;168.13;;
9322;SDS011;4700;48.822;9.270;2023-07-28T01:31:39;369.53;;;165.13;;
9322;SDS011;4700;48.822;9.270;2023-07-28T01:34:25;370.60;;;173.63;;
9322;SDS011;4700;48.822;9.270;2023-07-28T01:37:10;375.67;;;174.63;;
9322;SDS011;4700;48.822;9.270;2023-07-28T01:39:57;369.97;;;167.10;;
9322;SDS011;4700;48.822;9.270;2023-07-28T01:42:43;374.20;;;165.63;;
9322;SDS011;4700;48.822;9.270;2023-07-28T01:45:30;371.30;;;170.73;;
9322;SDS011;4700;48.822;9.270;2023-07-28T01:48:16;370.93;;;169.93;;
9322;SDS011;4700;48.822;9.270;2023-07-28T01:51:03;371.57;;;168.17;;
9322;SDS011;4700;48.822;9.270;2023-07-28T01:53:49;375.37;;;176.57;;
9322;SDS011;4700;48.822;9.270;2023-07-28T01:56:36;375.60;;;177.17;;
9322;SDS011;4700;48.822;9.270;2023-07-28T01:59:22;373.00;;;194.80;;
9322;SDS011;4700;48.822;9.270;2023-07-28T02:02:10;375.00;;;183.27;;
9322;SDS011;4700;48.822;9.270;2023-07-28T02:04:56;369.93;;;179.97;;
9322;SDS011;4700;48.822;9.270;2023-07-28T02:07:41;367.67;;;175.53;;
9322;SDS011;4700;48.822;9.270;2023-07-28T02:10:29;370.67;;;175.07;;
9322;SDS011;4700;48.822;9.270;2023-07-28T02:13:16;390.73;;;194.03;;
9322;SDS011;4700;48.822;9.270;2023-07-28T02:16:02;375.13;;;200.70;;
9322;SDS011;4700;48.822;9.270;2023-07-28T02:21:25;371.50;;;170.20;;
9322;SDS011;4700;48.822;9.270;2023-07-28T02:26:50;374.03;;;177.20;;
9322;SDS011;4700;48.822;9.270;2023-07-28T02:40:01;384.10;;;178.70;;
9322;SDS011;4700;48.822;9.270;2023-07-28T02:47:58;386.40;;;190.23;;
9322;SDS011;4700;48.822;9.270;2023-07-28T03:06:18;384.17;;;188.30;;
9322;SDS011;4700;48.822;9.270;2023-07-28T03:09:05;369.47;;;201.53;;
9322;SDS011;4700;48.822;9.270;2023-07-28T03:11:51;369.07;;;204.70;;
9322;SDS011;4700;48.822;9.270;2023-07-28T03:14:37;365.67;;;190.97;;
9322;SDS011;4700;48.822;9.270;2023-07-28T03:17:22;364.63;;;194.47;;
9322;SDS011;4700;48.822;9.270;2023-07-28T03:20:09;365.03;;;184.07;;
9322;SDS011;4700;48.822;9.270;2023-07-28T03:22:56;371.43;;;211.23;;
9322;SDS011;4700;48.822;9.270;2023-07-28T03:25:42;374.87;;;215.67;;
9322;SDS011;4700;48.822;9.270;2023-07-28T03:28:28;374.37;;;199.97;;
9322;SDS011;4700;48.822;9.270;2023-07-28T03:31:14;366.87;;;198.63;;
9322;SDS011;4700;48.822;9.270;2023-07-28T03:33:59;369.23;;;205.47;;
9322;SDS011;4700;48.822;9.270;2023-07-28T03:36:45;370.77;;;204.67;;
9322;SDS011;4700;48.822;9.270;2023-07-28T03:39:32;369.27;;;201.43;;
9322;SDS011;4700;48.822;9.270;2023-07-28T03:42:18;372.20;;;208.93;;
9322;SDS011;4700;48.822;9.270;2023-07-28T03:45:04;369.87;;;209.47;;
9322;SDS011;4700;48.822;9.270;2023-07-28T03:47:51;374.53;;;216.67;;
9322;SDS011;4700;48.822;9.270;2023-07-28T03:50:37;372.43;;;209.67;;
9322;SDS011;4700;48.822;9.270;2023-07-28T03:53:25;376.47;;;229.77;;
9322;SDS011;4700;48.822;9.270;2023-07-28T03:56:13;375.30;;;218.20;;
9322;SDS011;4700;48.822;9.270;2023-07-28T03:58:58;374.80;;;220.07;;
9322;SDS011;4700;48.822;9.270;2023-07-28T04:01:44;374.93;;;216.93;;
9322;SDS011;4700;48.822;9.270;2023-07-28T04:04:32;375.27;;;211.47;;
9322;SDS011;4700;48.822;9.270;2023-07-28T04:07:20;377.47;;;210.47;;
9322;SDS011;4700;48.822;9.270;2023-07-28T04:10:06;375.67;;;210.97;;
9322;SDS011;4700;48.822;9.270;2023-07-28T04:12:54;372.77;;;196.27;;
9322;SDS011;4700;48.822;9.270;2023-07-28T04:15:40;375.13;;;203.60;;
9322;SDS011;4700;48.822;9.270;2023-07-28T04:18:26;376.77;;;203.17;;
9322;SDS011;4700;48.822;9.270;2023-07-28T04:21:11;375.07;;;203.30;;
9322;SDS011;4700;48.822;9.270;2023-07-28T04:23:57;378.53;;;207.87;;
9322;SDS011;4700;48.822;9.270;2023-07-28T04:26:43;386.23;;;221.43;;
9322;SDS011;4700;48.822;9.270;2023-07-28T04:29:34;377.63;;;210.97;;
9322;SDS011;4700;48.822;9.270;2023-07-28T04:32:20;376.70;;;207.93;;
9322;SDS011;4700;48.822;9.270;2023-07-28T04:35:06;383.70;;;204.67;;
9322;SDS011;4700;48.822;9.270;2023-07-28T04:37:52;377.43;;;194.03;;
9322;SDS011;4700;48.822;9.270;2023-07-28T04:40:37;392.20;;;211.50;;
9322;SDS011;4700;48.822;9.270;2023-07-28T04:43:23;380.60;;;203.73;;
9322;SDS011;4700;48.822;9.270;2023-07-28T04:46:10;384.67;;;201.30;;
9322;SDS011;4700;48.822;9.270;2023-07-28T04:48:56;395.70;;;210.90;;
9322;SDS011;4700;48.822;9.270;2023-07-28T04:51:42;401.07;;;223.90;;
9322;SDS011;4700;48.822;9.270;2023-07-28T04:54:27;401.70;;;225.87;;
9322;SDS011;4700;48.822;9.270;2023-07-28T04:57:13;398.00;;;213.03;;
9322;SDS011;4700;48.822;9.270;2023-07-28T04:59:59;386.97;;;197.73;;
9322;SDS011;4700;48.822;9.270;2023-07-28T05:02:46;378.57;;;193.00;;
9322;SDS011;4700;48.822;9.270;2023-07-28T05:05:31;393.77;;;213.63;;
9322;SDS011;4700;48.822;9.270;2023-07-28T05:08:17;382.10;;;197.10;;
9322;SDS011;4700;48.822;9.270;2023-07-28T05:11:03;386.23;;;225.30;;
9322;SDS011;4700;48.822;9.270;2023-07-28T05:13:49;380.73;;;211.23;;
9322;SDS011;4700;48.822;9.270;2023-07-28T05:16:35;375.60;;;201.10;;
9322;SDS011;4700;48.822;9.270;2023-07-28T05:19:24;383.70;;;213.73;;
9322;SDS011;4700;48.822;9.270;2023-07-28T05:22:10;376.73;;;194.50;;
9322;SDS011;4700;48.822;9.270;2023-07-28T05:24:56;395.20;;;223.40;;
9322;SDS011;4700;48.822;9.270;2023-07-28T05:27:42;384.30;;;202.33;;
9322;SDS011;4700;48.822;9.270;2023-07-28T05:30:28;397.87;;;222.97;;
9322;SDS011;4700;48.822;9.270;2023-07-28T05:33:13;379.63;;;207.00;;
9322;SDS011;4700;48.822;9.270;2023-07-28T05:36:01;382.33;;;210.57;;
9322;SDS011;4700;48.822;9.270;2023-07-28T05:38:48;393.60;;;219.30;;
9322;SDS011;4700;48.822;9.270;2023-07-28T05:41:34;382.00;;;209.07;;
9322;SDS011;4700;48.822;9.270;2023-07-28T05:44:21;381.80;;;199.23;;
9322;SDS011;4700;48.822;9.270;2023-07-28T05:47:06;379.53;;;194.97;;
9322;SDS011;4700;48.822;9.270;2023-07-28T05:49:53;383.70;;;202.13;;
9322;SDS011;4700;48.822;9.270;2023-07-28T05:52:40;380.63;;;204.60;;
9322;SDS011;4700;48.822;9.270;2023-07-28T05:55:26;381.17;;;199.07;;
9322;SDS011;4700;48.822;9.270;2023-07-28T05:58:12;400.53;;;220.77;;
9322;SDS011;4700;48.822;9.270;2023-07-28T06:00:57;380.87;;;194.10;;
9322;SDS011;4700;48.822;9.270;2023-07-28T06:03:43;383.07;;;195.93;;
9322;SDS011;4700;48.822;9.270;2023-07-28T06:06:29;386.97;;;197.80;;
9322;SDS011;4700;48.822;9.270;2023-07-28T06:09:16;397.10;;;214.40;;
9322;SDS011;4700;48.822;9.270;2023-07-28T06:12:02;379.87;;;192.17;;
9322;SDS011;4700;48.822;9.270;2023-07-28T06:14:50;388.20;;;199.50;;
9322;SDS011;4700;48.822;9.270;2023-07-28T06:17:37;388.23;;;199.90;;
9322;SDS011;4700;48.822;9.270;2023-07-28T06:20:23;396.37;;;215.43;;
9322;SDS011;4700;48.822;9.270;2023-07-28T06:23:09;374.47;;;192.33;;
9322;SDS011;4700;48.822;9.270;2023-07-28T06:25:56;400.47;;;221.63;;
9322;SDS011;4700;48.822;9.270;2023-07-28T06:28:42;391.87;;;207.77;;
9322;SDS011;4700;48.822;9.270;2023-07-28T06:31:28;389.57;;;199.27;;
9322;SDS011;4700;48.822;9.270;2023-07-28T06:34:16;383.53;;;199.87;;
9322;SDS011;4700;48.822;9.270;2023-07-28T06:37:02;399.53;;;211.00;;
9322;SDS011;4700;48.822;9.270;2023-07-28T06:39:48;388.10;;;207.40;;
9322;SDS011;4700;48.822;9.270;2023-07-28T06:42:36;388.73;;;209.00;;
9322;SDS011;4700;48.822;9.270;2023-07-28T06:45:22;380.97;;;196.93;;
9322;SDS011;4700;48.822;9.270;2023-07-28T06:48:08;387.00;;;203.20;;
9322;SDS011;4700;48.822;9.270;2023-07-28T06:50:53;391.83;;;199.87;;
9322;SDS011;4700;48.822;9.270;2023-07-28T06:53:39;389.03;;;211.67;;
9322;SDS011;4700;48.822;9.270;2023-07-28T06:56:25;390.57;;;203.40;;
9322;SDS011;4700;48.822;9.270;2023-07-28T06:59:13;397.87;;;209.90;;
9322;SDS011;4700;48.822;9.270;2023-07-28T07:01:59;388.90;;;202.97;;
9322;SDS011;4700;48.822;9.270;2023-07-28T07:04:45;384.57;;;197.93;;
9322;SDS011;4700;48.822;9.270;2023-07-28T07:07:30;391.83;;;212.10;;
9322;SDS011;4700;48.822;9.270;2023-07-28T07:10:16;394.03;;;214.23;;
9322;SDS011;4700;48.822;9.270;2023-07-28T07:13:02;414.53;;;235.27;;
9322;SDS011;4700;48.822;9.270;2023-07-28T07:15:49;394.47;;;227.33;;
9322;SDS011;4700;48.822;9.270;2023-07-28T07:18:35;396.27;;;222.00;;
9322;SDS011;4700;48.822;9.270;2023-07-28T07:21:21;389.10;;;210.80;;
9322;SDS011;4700;48.822;9.270;2023-07-28T07:24:07;396.07;;;207.57;;
9322;SDS011;4700;48.822;9.270;2023-07-28T07:26:57;398.50;;;210.40;;
9322;SDS011;4700;48.822;9.270;2023-07-28T07:29:43;388.10;;;196.23;;
9322;SDS011;4700;48.822;9.270;2023-07-28T07:32:31;391.50;;;197.43;;
9322;SDS011;4700;48.822;9.270;2023-07-28T07:35:18;407.17;;;226.90;;
9322;SDS011;4700;48.822;9.270;2023-07-28T07:38:04;401.70;;;220.50;;
9322;SDS011;4700;48.822;9.270;2023-07-28T07:40:52;401.27;;;209.70;;
9322;SDS011;4700;48.822;9.270;2023-07-28T07:43:38;404.70;;;225.57;;
9322;SDS011;4700;48.822;9.270;2023-07-28T07:46:24;407.73;;;231.30;;
9322;SDS011;4700;48.822;9.270;2023-07-28T07:49:11;408.00;;;231.07;;
9322;SDS011;4700;48.822;9.270;2023-07-28T07:51:57;397.07;;;207.43;;
9322;SDS011;4700;48.822;9.270;2023-07-28T07:54:43;409.23;;;232.80;;
9322;SDS011;4700;48.822;9.270;2023-07-28T07:57:29;403.57;;;235.57;;
9322;SDS011;4700;48.822;9.270;2023-07-28T08:00:17;421.47;;;247.33;;
9322;SDS011;4700;48.822;9.270;2023-07-28T08:03:06;413.67;;;245.17;;
9322;SDS011;4700;48.822;9.270;2023-07-28T08:05:53;414.77;;;249.90;;
9322;SDS011;4700;48.822;9.270;2023-07-28T08:08:39;408.17;;;247.20;;
9322;SDS011;4700;48.822;9.270;2023-07-28T08:11:27;410.20;;;236.10;;
9322;SDS011;4700;48.822;9.270;2023-07-28T08:14:13;414.77;;;251.00;;
9322;SDS011;4700;48.822;9.270;2023-07-28T08:17:04;415.17;;;244.07;;
9322;SDS011;4700;48.822;9.270;2023-07-28T08:19:50;420.73;;;260.60;;
9322;SDS011;4700;48.822;9.270;2023-07-28T08:22:37;426.10;;;257.20;;
9322;SDS011;4700;48.822;9.270;2023-07-28T08:25:23;412.33;;;258.53;;
9322;SDS011;4700;48.822;9.270;2023-07-28T08:28:09;415.10;;;251.30;;
9322;SDS011;4700;48.822;9.270;2023-07-28T08:30:55;421.53;;;260.27;;
9322;SDS011;4700;48.822;9.270;2023-07-28T08:33:41;410.77;;;249.20;;
9322;SDS011;4700;48.822;9.270;2023-07-28T08:36:27;424.40;;;260.40;;
9322;SDS011;4700;48.822;9.270;2023-07-28T08:39:14;444.57;;;275.73;;
9322;SDS011;4700;48.822;9.270;2023-07-28T08:42:00;420.67;;;249.40;;
9322;SDS011;4700;48.822;9.270;2023-07-28T08:44:47;416.07;;;240.67;;
9322;SDS011;4700;48.822;9.270;2023-07-28T08:47:36;404.13;;;227.30;;
9322;SDS011;4700;48.822;9.270;2023-07-28T08:50:22;423.93;;;247.70;;
9322;SDS011;4700;48.822;9.270;2023-07-28T08:53:08;408.73;;;224.40;;
9322;SDS011;4700;48.822;9.270;2023-07-28T08:55:55;428.10;;;248.57;;
9322;SDS011;4700;48.822;9.270;2023-07-28T08:58:40;415.97;;;232.67;;
9322;SDS011;4700;48.822;9.270;2023-07-28T09:01:26;418.00;;;242.30;;
9322;SDS011;4700;48.822;9.270;2023-07-28T09:04:12;422.83;;;237.67;;
9322;SDS011;4700;48.822;9.270;2023-07-28T09:06:57;414.60;;;232.90;;
9322;SDS011;4700;48.822;9.270;2023-07-28T09:09:43;401.03;;;219.97;;
9322;SDS011;4700;48.822;9.270;2023-07-28T09:12:32;414.53;;;240.17;;
9322;SDS011;4700;48.822;9.270;2023-07-28T09:15:29;422.30;;;241.53;;
9322;SDS011;4700;48.822;9.270;2023-07-28T09:18:20;418.97;;;237.70;;
9322;SDS011;4700;48.822;9.270;2023-07-28T09:21:15;412.33;;;232.83;;
9322;SDS011;4700;48.822;9.270;2023-07-28T09:24:03;425.57;;;256.03;;
9322;SDS011;4700;48.822;9.270;2023-07-28T09:26:50;415.77;;;242.70;;
9322;SDS011;4700;48.822;9.270;2023-07-28T09:29:37;420.70;;;238.60;;
9322;SDS011;4700;48.822;9.270;2023-07-28T09:32:26;442.90;;;259.47;;
9322;SDS011;4700;48.822;9.270;2023-07-28T09:35:14;435.37;;;276.93;;
9322;SDS011;4700;48.822;9.270;2023-07-28T09:38:00;432.70;;;285.37;;
9322;SDS011;4700;48.822;9.270;2023-07-28T09:40:47;436.17;;;289.87;;
9322;SDS011;4700;48.822;9.270;2023-07-28T09:43:34;447.00;;;307.73;;
9322;SDS011;4700;48.822;9.270;2023-07-28T09:46:22;448.53;;;306.20;;
9322;SDS011;4700;48.822;9.270;2023-07-28T09:49:10;452.43;;;330.90;;
9322;SDS011;4700;48.822;9.270;2023-07-28T09:51:57;433.33;;;309.93;;
9322;SDS011;4700;48.822;9.270;2023-07-28T09:54:48;446.53;;;317.30;;
9322;SDS011;4700;48.822;9.270;2023-07-28T09:57:41;453.47;;;334.93;;
9322;SDS011;4700;48.822;9.270;2023-07-28T10:00:30;453.00;;;331.50;;
9322;SDS011;4700;48.822;9.270;2023-07-28T10:03:17;437.53;;;306.33;;
9322;SDS011;4700;48.822;9.270;2023-07-28T10:06:03;442.53;;;298.40;;
9322;SDS011;4700;48.822;9.270;2023-07-28T10:08:52;460.27;;;315.07;;
9322;SDS011;4700;48.822;9.270;2023-07-28T10:11:43;470.13;;;350.47;;
9322;SDS011;4700;48.822;9.270;2023-07-28T10:14:30;438.23;;;288.70;;
9322;SDS011;4700;48.822;9.270;2023-07-28T10:17:18;457.77;;;318.67;;
9322;SDS011;4700;48.822;9.270;2023-07-28T10:23:24;433.47;;;278.57;;
9322;SDS011;4700;48.822;9.270;2023-07-28T10:26:12;434.20;;;276.00;;
9322;SDS011;4700;48.822;9.270;2023-07-28T10:28:42;445.23;;;280.37;;
9322;SDS011;4700;48.822;9.270;2023-07-28T10:31:29;439.40;;;277.27;;
9322;SDS011;4700;48.822;9.270;2023-07-28T10:34:15;433.53;;;269.30;;
9322;SDS011;4700;48.822;9.270;2023-07-28T10:37:03;454.60;;;305.80;;
9322;SDS011;4700;48.822;9.270;2023-07-28T10:40:02;438.10;;;271.13;;
9322;SDS011;4700;48.822;9.270;2023-07-28T10:43:18;444.53;;;281.80;;
9322;SDS011;4700;48.822;9.270;2023-07-28T10:46:04;453.53;;;276.83;;
9322;SDS011;4700;48.822;9.270;2023-07-28T10:48:53;449.50;;;277.03;;
9322;SDS011;4700;48.822;9.270;2023-07-28T10:51:39;436.70;;;258.73;;
9322;SDS011;4700;48.822;9.270;2023-07-28T10:54:29;453.07;;;275.30;;
9322;SDS011;4700;48.822;9.270;2023-07-28T10:57:16;431.67;;;256.47;;
9322;SDS011;4700;48.822;9.270;2023-07-28T11:00:06;432.97;;;250.63;;
9322;SDS011;4700;48.822;9.270;2023-07-28T11:02:53;430.50;;;261.70;;
9322;SDS011;4700;48.822;9.270;2023-07-28T11:05:42;411.27;;;230.87;;
9322;SDS011;4700;48.822;9.270;2023-07-28T11:08:30;439.77;;;268.03;;
9322;SDS011;4700;48.822;9.270;2023-07-28T11:11:20;419.63;;;246.10;;
9322;SDS011;4700;48.822;9.270;2023-07-28T11:14:06;430.83;;;256.43;;
9322;SDS011;4700;48.822;9.270;2023-07-28T11:16:53;422.67;;;245.63;;
9322;SDS011;4700;48.822;9.270;2023-07-28T11:19:39;432.53;;;265.63;;
9322;SDS011;4700;48.822;9.270;2023-07-28T11:22:25;432.30;;;263.77;;
9322;SDS011;4700;48.822;9.270;2023-07-28T11:25:13;429.43;;;273.10;;
9322;SDS011;4700;48.822;9.270;2023-07-28T11:28:03;437.67;;;280.50;;
9322;SDS011;4700;48.822;9.270;2023-07-28T11:30:49;454.80;;;301.33;;
9322;SDS011;4700;48.822;9.270;2023-07-28T11:33:36;437.53;;;285.63;;
9322;SDS011;4700;48.822;9.270;2023-07-28T11:36:22;444.60;;;307.20;;
9322;SDS011;4700;48.822;9.270;2023-07-28T11:39:08;441.57;;;298.43;;
9322;SDS011;4700;48.822;9.270;2023-07-28T11:41:55;439.17;;;298.97;;
9322;SDS011;4700;48.822;9.270;2023-07-28T11:44:44;452.23;;;317.13;;
9322;SDS011;4700;48.822;9.270;2023-07-28T11:47:29;452.43;;;325.77;;
9322;SDS011;4700;48.822;9.270;2023-07-28T11:50:21;433.60;;;304.27;;
9322;SDS011;4700;48.822;9.270;2023-07-28T11:53:08;445.30;;;309.20;;
9322;SDS011;4700;48.822;9.270;2023-07-28T11:55:57;443.17;;;312.20;;
9322;SDS011;4700;48.822;9.270;2023-07-28T11:58:49;471.87;;;348.63;;
9322;SDS011;4700;48.822;9.270;2023-07-28T12:04:40;442.13;;;312.63;;
9322;SDS011;4700;48.822;9.270;2023-07-28T12:07:28;446.90;;;310.70;;
9322;SDS011;4700;48.822;9.270;2023-07-28T12:10:14;449.60;;;326.27;;
9322;SDS011;4700;48.822;9.270;2023-07-28T12:13:04;481.03;;;353.10;;
9322;SDS011;4700;48.822;9.270;2023-07-28T12:15:51;452.63;;;324.97;;
9322;SDS011;4700;48.822;9.270;2023-07-28T12:18:38;446.80;;;303.20;;
9322;SDS011;4700;48.822;9.270;2023-07-28T12:21:24;452.07;;;314.60;;
9322;SDS011;4700;48.822;9.270;2023-07-28T12:24:10;426.60;;;274.73;;
9322;SDS011;4700;48.822;9.270;2023-07-28T12:26:55;458.93;;;315.73;;
9322;SDS011;4700;48.822;9.270;2023-07-28T12:29:41;449.00;;;306.33;;
9322;SDS011;4700;48.822;9.270;2023-07-28T12:32:30;468.50;;;319.27;;
9322;SDS011;4700;48.822;9.270;2023-07-28T12:35:17;447.30;;;290.83;;
9322;SDS011;4700;48.822;9.270;2023-07-28T12:38:08;440.83;;;277.53;;
9322;SDS011;4700;48.822;9.270;2023-07-28T12:40:56;426.80;;;261.40;;
9322;SDS011;4700;48.822;9.270;2023-07-28T12:43:42;439.20;;;282.80;;
9322;SDS011;4700;48.822;9.270;2023-07-28T12:46:28;443.60;;;273.70;;
9322;SDS011;4700;48.822;9.270;2023-07-28T12:49:14;454.97;;;290.47;;
9322;SDS011;4700;48.822;9.270;2023-07-28T12:52:04;443.90;;;282.57;;
9322;SDS011;4700;48.822;9.270;2023-07-28T12:54:51;438.40;;;272.63;;
9322;SDS011;4700;48.822;9.270;2023-07-28T12:57:37;431.90;;;258.20;;
9322;SDS011;4700;48.822;9.270;2023-07-28T13:00:23;464.10;;;306.97;;
9322;SDS011;4700;48.822;9.270;2023-07-28T13:03:08;430.83;;;262.00;;
9322;SDS011;4700;48.822;9.270;2023-07-28T13:05:55;461.10;;;296.13;;
9322;SDS011;4700;48.822;9.270;2023-07-28T13:08:42;436.67;;;270.63;;
9322;SDS011;4700;48.822;9.270;2023-07-28T13:11:28;447.70;;;283.73;;
9322;SDS011;4700;48.822;9.270;2023-07-28T13:14:13;442.77;;;286.80;;
9322;SDS011;4700;48.822;9.270;2023-07-28T13:16:59;439.53;;;282.37;;
9322;SDS011;4700;48.822;9.270;2023-07-28T13:19:44;436.50;;;276.20;;
9322;SDS011;4700;48.822;9.270;2023-07-28T13:22:32;462.20;;;302.47;;
9322;SDS011;4700;48.822;9.270;2023-07-28T13:25:19;440.90;;;276.23;;
9322;SDS011;4700;48.822;9.270;2023-07-28T13:28:05;422.87;;;265.17;;
9322;SDS011;4700;48.822;9.270;2023-07-28T13:30:51;424.77;;;271.07;;
9322;SDS011;4700;48.822;9.270;2023-07-28T13:33:40;418.70;;;253.80;;
9322;SDS011;4700;48.822;9.270;2023-07-28T13:36:26;420.37;;;256.70;;
9322;SDS011;4700;48.822;9.270;2023-07-28T13:39:11;422.10;;;264.60;;
9322;SDS011;4700;48.822;9.270;2023-07-28T13:41:58;427.53;;;268.57;;
9322;SDS011;4700;48.822;9.270;2023-07-28T13:44:44;434.60;;;263.77;;
9322;SDS011;4700;48.822;9.270;2023-07-28T13:47:30;435.43;;;277.57;;
9322;SDS011;4700;48.822;9.270;2023-07-28T13:50:15;436.17;;;268.33;;
9322;SDS011;4700;48.822;9.270;2023-07-28T13:53:01;466.90;;;291.00;;
9322;SDS011;4700;48.822;9.270;2023-07-28T13:55:47;406.87;;;217.57;;
9322;SDS011;4700;48.822;9.270;2023-07-28T13:58:41;432.90;;;251.23;;
9322;SDS011;4700;48.822;9.270;2023-07-28T14:01:26;418.70;;;231.30;;
9322;SDS011;4700;48.822;9.270;2023-07-28T14:04:12;422.47;;;236.57;;
9322;SDS011;4700;48.822;9.270;2023-07-28T14:07:00;440.10;;;243.73;;
9322;SDS011;4700;48.822;9.270;2023-07-28T14:09:45;407.10;;;208.97;;
9322;SDS011;4700;48.822;9.270;2023-07-28T14:12:31;403.77;;;201.33;;
9322;SDS011;4700;48.822;9.270;2023-07-28T14:15:18;411.57;;;213.70;;
9322;SDS011;4700;48.822;9.270;2023-07-28T14:18:04;407.10;;;200.87;;
9322;SDS011;4700;48.822;9.270;2023-07-28T14:20:50;406.57;;;201.30;;
9322;SDS011;4700;48.822;9.270;2023-07-28T14:23:36;408.67;;;221.17;;
9322;SDS011;4700;48.822;9.270;2023-07-28T14:26:22;387.70;;;186.90;;
9322;SDS011;4700;48.822;9.270;2023-07-28T14:29:08;408.97;;;226.73;;
9322;SDS011;4700;48.822;9.270;2023-07-28T14:31:55;398.37;;;196.73;;
9322;SDS011;4700;48.822;9.270;2023-07-28T14:34:41;402.27;;;213.10;;
9322;SDS011;4700;48.822;9.270;2023-07-28T14:37:32;394.47;;;194.30;;
9322;SDS011;4700;48.822;9.270;2023-07-28T14:40:18;392.77;;;196.57;;
9322;SDS011;4700;48.822;9.270;2023-07-28T14:43:03;411.90;;;221.23;;
9322;SDS011;4700;48.822;9.270;2023-07-28T14:45:49;395.07;;;194.63;;
9322;SDS011;4700;48.822;9.270;2023-07-28T14:48:36;403.70;;;201.70;;
9322;SDS011;4700;48.822;9.270;2023-07-28T14:51:22;389.03;;;187.73;;
9322;SDS011;4700;48.822;9.270;2023-07-28T14:54:08;404.70;;;206.07;;
9322;SDS011;4700;48.822;9.270;2023-07-28T14:56:53;399.67;;;209.83;;
9322;SDS011;4700;48.822;9.270;2023-07-28T14:59:39;394.13;;;196.70;;
9322;SDS011;4700;48.822;9.270;2023-07-28T15:02:25;391.97;;;188.87;;
9322;SDS011;4700;48.822;9.270;2023-07-28T15:05:14;420.87;;;221.53;;
9322;SDS011;4700;48.822;9.270;2023-07-28T15:08:02;401.43;;;200.23;;
9322;SDS011;4700;48.822;9.270;2023-07-28T15:10:49;403.77;;;201.90;;
9322;SDS011;4700;48.822;9.270;2023-07-28T15:13:34;403.50;;;208.33;;
9322;SDS011;4700;48.822;9.270;2023-07-28T15:16:20;411.57;;;216.27;;
9322;SDS011;4700;48.822;9.270;2023-07-28T15:19:06;388.63;;;187.10;;
9322;SDS011;4700;48.822;9.270;2023-07-28T15:21:54;401.80;;;207.47;;
9322;SDS011;4700;48.822;9.270;2023-07-28T15:24:40;391.33;;;198.57;;
9322;SDS011;4700;48.822;9.270;2023-07-28T15:27:26;415.73;;;210.40;;
9322;SDS011;4700;48.822;9.270;2023-07-28T15:30:12;393.77;;;200.60;;
9322;SDS011;4700;48.822;9.270;2023-07-28T15:32:57;399.17;;;196.97;;
9322;SDS011;4700;48.822;9.270;2023-07-28T15:35:43;399.33;;;199.30;;
9322;SDS011;4700;48.822;9.270;2023-07-28T15:38:31;413.53;;;213.73;;
9322;SDS011;4700;48.822;9.270;2023-07-28T15:41:16;402.03;;;202.80;;
9322;SDS011;4700;48.822;9.270;2023-07-28T15:44:02;408.80;;;211.87;;
9322;SDS011;4700;48.822;9.270;2023-07-28T15:46:48;415.97;;;229.70;;
9322;SDS011;4700;48.822;9.270;2023-07-28T15:49:38;398.67;;;205.13;;
9322;SDS011;4700;48.822;9.270;2023-07-28T15:52:24;394.37;;;191.43;;
9322;SDS011;4700;48.822;9.270;2023-07-28T15:55:11;407.57;;;214.00;;
9322;SDS011;4700;48.822;9.270;2023-07-28T15:57:58;394.97;;;201.83;;
9322;SDS011;4700;48.822;9.270;2023-07-28T16:00:43;396.93;;;192.10;;
9322;SDS011;4700;48.822;9.270;2023-07-28T16:03:29;414.93;;;212.83;;
9322;SDS011;4700;48.822;9.270;2023-07-28T16:06:15;416.63;;;221.03;;
9322;SDS011;4700;48.822;9.270;2023-07-28T16:09:04;391.00;;;189.60;;
9322;SDS011;4700;48.822;9.270;2023-07-28T16:11:51;386.20;;;180.57;;
9322;SDS011;4700;48.822;9.270;2023-07-28T16:14:37;397.27;;;201.53;;
9322;SDS011;4700;48.822;9.270;2023-07-28T16:17:23;394.17;;;189.03;;
9322;SDS011;4700;48.822;9.270;2023-07-28T16:20:09;388.83;;;185.23;;
9322;SDS011;4700;48.822;9.270;2023-07-28T16:22:55;392.50;;;197.33;;
9322;SDS011;4700;48.822;9.270;2023-07-28T16:25:40;391.37;;;197.23;;
9322;SDS011;4700;48.822;9.270;2023-07-28T16:28:32;390.77;;;185.07;;
9322;SDS011;4700;48.822;9.270;2023-07-28T16:31:17;388.40;;;189.07;;
9322;SDS011;4700;48.822;9.270;2023-07-28T16:34:04;397.40;;;207.57;;
9322;SDS011;4700;48.822;9.270;2023-07-28T16:36:50;404.90;;;211.37;;
9322;SDS011;4700;48.822;9.270;2023-07-28T16:39:35;397.53;;;211.13;;
9322;SDS011;4700;48.822;9.270;2023-07-28T16:42:21;392.90;;;204.43;;
9322;SDS011;4700;48.822;9.270;2023-07-28T16:45:09;388.40;;;190.00;;
9322;SDS011;4700;48.822;9.270;2023-07-28T16:47:55;405.97;;;198.63;;
9322;SDS011;4700;48.822;9.270;2023-07-28T16:50:40;391.57;;;197.20;;
9322;SDS011;4700;48.822;9.270;2023-07-28T16:53:26;408.10;;;225.13;;
9322;SDS011;4700;48.822;9.270;2023-07-28T16:56:11;406.77;;;222.90;;
9322;SDS011;4700;48.822;9.270;2023-07-28T16:58:57;395.57;;;210.83;;
9322;SDS011;4700;48.822;9.270;2023-07-28T17:01:47;392.23;;;209.53;;
9322;SDS011;4700;48.822;9.270;2023-07-28T17:04:32;399.17;;;206.53;;